This is the latest recevied weather packets stored in our database for station/object F4FSZ-11. If no packets are shown the sender has not sent any weather packets the latest 10 day(s).
| Time | Temp. | Humidity | Pressure | Rain* | Wind** | Luminosity | Snow |
|---|---|---|---|---|---|---|---|
| 1777501995 | 10° C | 58% | 1013.3 hPa | - | - | - | - |
| 1777501095 | 10.56° C | 60% | 1013.1 hPa | - | - | - | - |
| 1777500195 | 10.56° C | 58% | 1013.1 hPa | - | - | - | - |
| 1777499295 | 10.56° C | 58% | 1012.9 hPa | - | - | - | - |
| 1777498395 | 9.44° C | 67% | 1013 hPa | - | - | - | - |
| 1777497495 | 9.44° C | 68% | 1013 hPa | - | - | - | - |
| 1777496595 | 10° C | 65% | 1013.1 hPa | - | - | - | - |
| 1777495695 | 11.11° C | 61% | 1012.9 hPa | - | - | - | - |
| 1777494795 | 11.67° C | 57% | 1012.8 hPa | - | - | - | - |
| 1777493895 | 12.22° C | 53% | 1012.7 hPa | - | - | - | - |
| 1777492995 | 13.33° C | 49% | 1012.6 hPa | - | - | - | - |
| 1777492094 | 13.89° C | 49% | 1012.4 hPa | - | - | - | - |
| 1777491195 | 13.89° C | 48% | 1012.2 hPa | - | - | - | - |
| 1777490295 | 14.44° C | 48% | 1012.1 hPa | - | - | - | - |
| 1777489394 | 15° C | 47% | 1012 hPa | - | - | - | - |
| 1777488494 | 16.11° C | 44% | 1011.7 hPa | - | - | - | - |
| 1777487594 | 18.33° C | 41% | 1011.5 hPa | - | - | - | - |
| 1777486694 | 19.44° C | 39% | 1011.4 hPa | - | - | - | - |
| 1777485794 | 21.11° C | 38% | 1011.1 hPa | - | - | - | - |
| 1777484894 | 20.56° C | 38% | 1011.1 hPa | - | - | - | - |
| 1777483994 | 23.89° C | 34% | 1010.9 hPa | - | - | - | - |
| 1777483094 | 21.67° C | 36% | 1010.8 hPa | - | - | - | - |
| 1777482194 | 21.67° C | 37% | 1010.8 hPa | - | - | - | - |
| 1777481294 | 23.33° C | 34% | 1010.8 hPa | - | - | - | - |
| 1777480394 | 23.33° C | 34% | 1010.8 hPa | - | - | - | - |
* Rain since midnight (hover to see other rain measurements)
** Current wind speed in m/s (hover to see current wind gust speed)